^^
Station Historical Data
Daily Summary for February 14, 2018 Units:  Metric    English   Both
« Previous Day
Next Day »
Daily Weekly Monthly Yearly Custom
  High: Low: Average:
Temperature: -17.8 °C 5 °C 9.1 °C
Dew Point: -17.8 °C 0 °C 5.8 °C
Humidity: Humidity% 66% 80%
Wind Speed: 0km/h 3.7km/h 12.2km/h
Wind Gust: 0km/h - -
Wind- - SSW
Pressure: 0 hPa 1007.7 hPa -
Precipitation: 0 mm    
Historical Graphs
 
 
Tabular Data for February 14, 2018
Time Temperature Dew Point Pressure Wind Wind Speed Wind Gust Humidity Rainfall Rate (Hourly)
-17.8 °C -17.8 °C 0 hPa Calm     Humidity% 0 mm
00:04 5 °C 0 °C 1022.6 hPa South 7.4 km/h 7.4 km/h 70% 0 mm
00:09 5 °C 0 °C 1022.6 hPa SW 7.4 km/h 7.4 km/h 70% 0 mm
00:14 5.1 °C 0.1 °C 1022.6 hPa South 9.3 km/h 9.3 km/h 70% 0 mm
00:19 5.2 °C 0.3 °C 1022.6 hPa SSW 16.7 km/h 16.7 km/h 71% 0 mm
00:25 5.2 °C 0.4 °C 1022.2 hPa South 11.1 km/h 11.1 km/h 71% 0 mm
00:30 5.3 °C 0.5 °C 1022.2 hPa South 14.8 km/h 14.8 km/h 71% 0 mm
00:35 5.4 °C 0.6 °C 1021.9 hPa South 13 km/h 13 km/h 71% 0 mm
00:40 5.5 °C 0.8 °C 1021.9 hPa South 18.5 km/h 18.5 km/h 72% 0 mm
00:45 5.6 °C 0.9 °C 1021.9 hPa South 14.8 km/h 14.8 km/h 72% 0 mm
00:51 5.7 °C 1.2 °C 1021.6 hPa SE 20.4 km/h 20.4 km/h 73% 0 mm
00:56 5.8 °C 1.3 °C 1021.6 hPa South 12.9 km/h 12.9 km/h 73% 0 mm
01:01 5.8 °C 1.6 °C 1021.6 hPa SSW 16.1 km/h 16.1 km/h 74% 0 mm
01:06 5.9 °C 1.6 °C 1021.6 hPa South 9.3 km/h 9.3 km/h 74% 0 mm
01:11 5.9 °C 1.8 °C 1021.6 hPa SSW 11.1 km/h 11.1 km/h 75% 0 mm
01:17 6 °C 1.9 °C 1021.2 hPa SSW 11.1 km/h 11.1 km/h 75% 0 mm
01:22 6.1 °C 2 °C 1021.2 hPa SSW 9.3 km/h 9.3 km/h 75% 0 mm
01:27 6.2 °C 2.1 °C 1021.6 hPa South 11.1 km/h 11.1 km/h 75% 0 mm
01:32 6.3 °C 2.2 °C 1021.6 hPa SSW 13 km/h 13 km/h 75% 0 mm
01:37 6.2 °C 2.1 °C 1021.6 hPa SSE 13 km/h 13 km/h 75% 0 mm
01:42 6.2 °C 2.1 °C 1021.2 hPa SSE 7.4 km/h 9.2 km/h 75% 0 mm
01:47 6.1 °C 2.2 °C 1021.2 hPa SSW 14.8 km/h 14.8 km/h 76% 0 mm
01:52 6.2 °C 2.2 °C 1021.2 hPa SW 14.8 km/h 14.8 km/h 76% 0 mm
01:58 6.2 °C 2.3 °C 1021.2 hPa South 16.7 km/h 16.7 km/h 76% 0 mm
02:03 6.2 °C 2.3 °C 1021.2 hPa SSW 16.7 km/h 16.7 km/h 76% 0 mm
02:09 6.3 °C 2.3 °C 1020.9 hPa South 18.5 km/h 18.5 km/h 76% 0 mm
02:14 6.2 °C 2.3 °C 1020.9 hPa SSE 16.7 km/h 16.7 km/h 76% 0 mm
02:19 6.1 °C 2.2 °C 1020.9 hPa South 9.3 km/h 9.3 km/h 76% 0 mm
02:24 6 °C 2.3 °C 1020.9 hPa South 14.8 km/h 14.8 km/h 77% 0 mm
02:30 5.9 °C 2.2 °C 1020.9 hPa South 9.3 km/h 9.3 km/h 77% 0 mm
02:35 5.8 °C 2.1 °C 1020.5 hPa South 5.6 km/h 5.6 km/h 77% 0 mm
02:40 5.8 °C 2.2 °C 1020.5 hPa SSW 9.3 km/h 9.3 km/h 78% 0 mm
02:45 5.9 °C 2.3 °C 1020.5 hPa SSW 13 km/h 13 km/h 78% 0 mm
02:50 6 °C 2.4 °C 1020.5 hPa South 11.1 km/h 11.1 km/h 78% 0 mm
02:55 6.1 °C 2.6 °C 1020.5 hPa SW 11.1 km/h 11.1 km/h 78% 0 mm
03:01 6.3 °C 2.7 °C 1020.2 hPa South 16.7 km/h 16.7 km/h 78% 0 mm
03:06 6.3 °C 2.9 °C 1020.2 hPa SW 13 km/h 13 km/h 79% 0 mm
03:11 6.3 °C 2.9 °C 1020.2 hPa SSW 9.3 km/h 9.3 km/h 79% 0 mm
03:17 6.3 °C 2.9 °C 1019.9 hPa South 11.1 km/h 11.1 km/h 79% 0 mm
03:22 6.2 °C 2.8 °C 1019.9 hPa South 11.1 km/h 11.1 km/h 79% 0 mm
03:27 6.2 °C 2.9 °C 1019.9 hPa South 5.6 km/h 5.6 km/h 80% 0 mm
03:32 6.1 °C 2.7 °C 1019.9 hPa SSW 9.3 km/h 9.3 km/h 79% 0 mm
03:37 6 °C 2.8 °C 1019.9 hPa SE 5.6 km/h 5.6 km/h 80% 0 mm
03:42 5.9 °C 2.9 °C 1019.9 hPa SSE 9.3 km/h 9.3 km/h 81% 0 mm
03:47 6 °C 3 °C 1019.9 hPa South 9.7 km/h 9.7 km/h 81% 0 mm
03:53 6 °C 3 °C 1019.5 hPa SSW 11.1 km/h 11.1 km/h 81% 0 mm
03:59 6.1 °C 3.1 °C 1019.5 hPa SSW 11.3 km/h 11.3 km/h 81% 0 mm
04:04 6 °C 3.2 °C 1019.5 hPa SSE 9.3 km/h 9.3 km/h 82% 0 mm
04:09 5.9 °C 3.1 °C 1019.5 hPa SSW 14.8 km/h 14.8 km/h 82% 0 mm
04:14 5.9 °C 3.3 °C 1019.5 hPa SSW 13 km/h 13 km/h 83% 0 mm
04:20 5.9 °C 3.3 °C 1019.5 hPa SSW 18.5 km/h 18.5 km/h 83% 0 mm
04:25 6 °C 3.3 °C 1019.5 hPa SW 13 km/h 13 km/h 83% 0 mm
04:30 5.9 °C 3.3 °C 1019.5 hPa South 11.1 km/h 11.1 km/h 83% 0 mm
04:35 5.9 °C 3.4 °C 1019.5 hPa SSW 13 km/h 13 km/h 84% 0 mm
04:40 5.9 °C 3.4 °C 1019.5 hPa South 7.4 km/h 7.4 km/h 84% 0 mm
04:46 5.8 °C 3.5 °C 1019.2 hPa South 11.1 km/h 11.1 km/h 85% 0 mm
04:48 5.8 °C 3.5 °C 1019.5 hPa SSW 13 km/h 13 km/h 85% 0 mm
04:53 5.8 °C 3.7 °C 1019.5 hPa SSW 9.3 km/h 9.3 km/h 86% 0 mm
04:58 5.8 °C 3.7 °C 1019.2 hPa SSE 9.3 km/h 9.3 km/h 86% 0 mm
05:03 5.8 °C 3.6 °C 1019.2 hPa SSW 13 km/h 13 km/h 86% 0 mm
05:09 5.8 °C 3.6 °C 1019.2 hPa South 11.1 km/h 11.1 km/h 86% 0 mm
05:14 5.7 °C 3.7 °C 1019.2 hPa South 13 km/h 13 km/h 87% 0 mm
05:19 5.7 °C 3.8 °C 1018.8 hPa South 14.8 km/h 14.8 km/h 88% 0 mm
05:24 5.6 °C 3.8 °C 1018.8 hPa South 11.1 km/h 11.1 km/h 88% 0 mm
05:29 5.6 °C 3.8 °C 1018.8 hPa South 9.3 km/h 9.3 km/h 88% 0 mm
05:34 5.6 °C 3.9 °C 1018.8 hPa South 14.8 km/h 14.8 km/h 89% 0 mm
05:39 5.6 °C 3.9 °C 1018.5 hPa SSE 16.7 km/h 16.7 km/h 89% 0 mm
05:44 5.6 °C 4.1 °C 1018.5 hPa South 13 km/h 13 km/h 90% 0 mm
05:50 5.6 °C 4.1 °C 1018.5 hPa South 18.5 km/h 18.5 km/h 90% 0 mm
05:55 5.6 °C 4.3 °C 1018.5 hPa South 14.8 km/h 14.8 km/h 91% 0 mm
06:00 5.7 °C 4.3 °C 1018.5 hPa South 11.3 km/h 11.3 km/h 91% 0 mm
06:01 5.7 °C 4.3 °C 1018.5 hPa South 11.1 km/h 11.1 km/h 91% 0 mm
06:06 5.7 °C 4.3 °C 1018.5 hPa SSE 17.7 km/h 17.7 km/h 91% 0 mm
06:11 5.7 °C 4.3 °C 1018.5 hPa SSW 16.7 km/h 16.7 km/h 91% 0 mm
06:16 5.7 °C 4.3 °C 1018.5 hPa SW 11.3 km/h 11.3 km/h 91% 0 mm
06:22 5.7 °C 4.5 °C 1018.5 hPa South 18.5 km/h 18.5 km/h 92% 0 mm
06:27 5.8 °C 4.6 °C 1018.5 hPa SSW 16.7 km/h 16.7 km/h 92% 0 mm
06:32 5.8 °C 4.6 °C 1018.5 hPa SSE 13 km/h 13 km/h 92% 0 mm
06:38 5.9 °C 4.7 °C 1018.2 hPa SSE 9.3 km/h 9.3 km/h 92% 0 mm
06:43 5.9 °C 4.7 °C 1018.2 hPa SSW 12.9 km/h 12.9 km/h 92% 0 mm
06:48 5.9 °C 4.7 °C 1018.2 hPa South 13 km/h 13 km/h 92% 0 mm
06:53 5.8 °C 4.6 °C 1018.2 hPa South 11.1 km/h 11.1 km/h 92% 0 mm
06:58 5.8 °C 4.6 °C 1018.2 hPa SSE 7.4 km/h 7.4 km/h 92% 0 mm
07:04 5.8 °C 4.6 °C 1018.2 hPa South 7.4 km/h 7.4 km/h 92% 0 mm
07:09 5.8 °C 4.6 °C 1018.2 hPa South 5.6 km/h 5.6 km/h 92% 0 mm
07:14 5.7 °C 4.5 °C 1018.2 hPa South 7.4 km/h 7.4 km/h 92% 0 mm
07:19 5.8 °C 4.7 °C 1018.2 hPa South 5.6 km/h 5.6 km/h 93% 0 mm
07:24 5.9 °C 4.8 °C 1018.2 hPa South 9.3 km/h 9.3 km/h 93% 0 mm
07:29 5.9 °C 4.7 °C 1018.5 hPa SE 11.1 km/h 11.1 km/h 92% 0 mm
07:34 5.9 °C 4.7 °C 1018.5 hPa SSW 16.7 km/h 16.7 km/h 92% 0 mm
07:39 5.9 °C 4.7 °C 1018.2 hPa South 18.5 km/h 18.5 km/h 92% 0 mm
07:44 5.9 °C 4.8 °C 1018.2 hPa SSW 9.3 km/h 9.3 km/h 93% 0 mm
07:50 5.9 °C 4.8 °C 1018.2 hPa SSW 5.6 km/h 5.6 km/h 93% 0 mm
07:55 5.9 °C 4.9 °C 1018.2 hPa South 11.1 km/h 11.1 km/h 93% 0 mm
08:00 5.9 °C 4.9 °C 1018.2 hPa SSW 11.1 km/h 11.1 km/h 93% 0 mm
08:05 6 °C 4.9 °C 1018.2 hPa South 9.3 km/h 9.3 km/h 93% 0 mm
08:10 6.1 °C 5 °C 1018.2 hPa SSE 5.6 km/h 5.6 km/h 93% 0 mm
08:16 6.1 °C 5.1 °C 1018.2 hPa SSE 18.5 km/h 18.5 km/h 93% 0 mm
08:21 6.1 °C 5.1 °C 1018.2 hPa South 11.1 km/h 11.1 km/h 93% 0 mm
08:26 6.2 °C 5.1 °C 1017.8 hPa SSW 14.8 km/h 14.8 km/h 93% 0 mm
08:32 6.2 °C 5.2 °C 1018.2 hPa South 16.7 km/h 16.7 km/h 93% 0 mm
08:37 6.3 °C 5.2 °C 1018.2 hPa SSW 11.1 km/h 11.1 km/h 93% 0 mm
08:43 6.4 °C 5.3 °C 1017.8 hPa South 9.3 km/h 9.3 km/h 93% 0 mm
08:48 6.5 °C 5.4 °C 1017.5 hPa South 7.4 km/h 7.4 km/h 93% 0 mm
08:53 6.6 °C 5.3 °C 1017.5 hPa SSW 8 km/h 8 km/h 92% 0 mm
08:58 6.6 °C 5.4 °C 1017.5 hPa SSW 13 km/h 13 km/h 92% 0 mm
09:03 6.7 °C 5.5 °C 1017.5 hPa South 22.2 km/h 22.2 km/h 92% 0 mm
09:08 6.8 °C 5.6 °C 1017.5 hPa South 11.1 km/h 11.1 km/h 92% 0 mm
09:13 6.8 °C 5.6 °C 1017.5 hPa WSW 14.8 km/h 14.8 km/h 92% 0 mm
09:18 6.9 °C 5.7 °C 1017.5 hPa SSW 11.1 km/h 11.1 km/h 92% 0 mm
09:23 7 °C 5.8 °C 1017.5 hPa WNW 16.7 km/h 16.7 km/h 92% 0 mm
09:28 7.1 °C 5.7 °C 1017.5 hPa SSW 14.8 km/h 15.6 km/h 91% 0 mm
09:33 7.2 °C 5.8 °C 1017.5 hPa SSW 18.5 km/h 18.5 km/h 91% 0 mm
09:38 7.3 °C 5.9 °C 1017.5 hPa SW 16.7 km/h 16.7 km/h 91% 0 mm
09:44 7.4 °C 6 °C 1017.5 hPa SSW 12.9 km/h 12.9 km/h 91% 0 mm
09:49 7.5 °C 5.9 °C 1017.2 hPa West 16.7 km/h 16.7 km/h 90% 0 mm
09:54 7.6 °C 6 °C 1017.2 hPa SSW 16.7 km/h 16.7 km/h 90% 0 mm
10:00 7.7 °C 6.1 °C 1017.2 hPa SSW 13 km/h 13 km/h 90% 0 mm
10:05 7.8 °C 6.3 °C 1017.5 hPa NW 13 km/h 13 km/h 90% 0 mm
10:10 7.9 °C 6.3 °C 1017.2 hPa WSW 16.1 km/h 16.1 km/h 90% 0 mm
10:16 8 °C 6.3 °C 1016.8 hPa SSW 9.3 km/h 9.3 km/h 89% 0 mm
10:21 8.1 °C 6.4 °C 1016.8 hPa South 11.1 km/h 11.1 km/h 89% 0 mm
10:27 8.2 °C 6.4 °C 1016.8 hPa SSW 18.5 km/h 18.5 km/h 89% 0 mm
10:32 8.2 °C 6.5 °C 1016.8 hPa SSW 11.1 km/h 11.1 km/h 89% 0 mm
10:37 8.3 °C 6.6 °C 1016.8 hPa SSW 11.1 km/h 11.1 km/h 89% 0 mm
10:42 8.3 °C 6.6 °C 1016.8 hPa SSW 14.8 km/h 14.8 km/h 89% 0 mm
10:47 8.4 °C 6.7 °C 1016.8 hPa SSW 14.8 km/h 14.8 km/h 89% 0 mm
10:52 8.5 °C 6.8 °C 1016.8 hPa WSW 5.6 km/h 5.6 km/h 89% 0 mm
10:57 8.6 °C 6.7 °C 1016.5 hPa SSE 11.1 km/h 11.1 km/h 88% 0 mm
11:02 8.7 °C 6.8 °C 1016.5 hPa SSE 11.1 km/h 11.1 km/h 88% 0 mm
11:07 8.8 °C 6.9 °C 1016.5 hPa SSE 11.1 km/h 11.1 km/h 88% 0 mm
11:12 8.8 °C 6.8 °C 1016.1 hPa WSW 18.5 km/h 18.5 km/h 87% 0 mm
11:17 8.9 °C 6.9 °C 1016.1 hPa South 16.7 km/h 16.7 km/h 87% 0 mm
11:22 9 °C 6.9 °C 1016.1 hPa South 11.1 km/h 11.1 km/h 87% 0 mm
11:28 9.1 °C 6.9 °C 1016.1 hPa SW 11.1 km/h 11.1 km/h 86% 0 mm
11:33 9.2 °C 6.9 °C 1015.8 hPa South 17.7 km/h 17.7 km/h 86% 0 mm
11:38 9.1 °C 6.8 °C 1015.8 hPa SSW 5.6 km/h 5.6 km/h 86% 0 mm
11:43 9.1 °C 6.8 °C 1015.8 hPa SSW 16.1 km/h 16.1 km/h 86% 0 mm
11:49 9 °C 6.8 °C 1015.5 hPa SW 18.5 km/h 18.5 km/h 86% 0 mm
11:54 9 °C 6.8 °C 1015.5 hPa West 14.8 km/h 14.8 km/h 86% 0 mm
11:59 9.1 °C 6.8 °C 1015.5 hPa WSW 14.5 km/h 14.5 km/h 86% 0 mm
12:04 9.2 °C 7 °C 1015.5 hPa East 11.1 km/h 11.1 km/h 86% 0 mm
12:09 9.3 °C 6.9 °C 1015.5 hPa SSW 14.8 km/h 14.8 km/h 85% 0 mm
12:14 9.3 °C 6.9 °C 1015.5 hPa South 20.4 km/h 20.4 km/h 85% 0 mm
12:19 9.3 °C 6.9 °C 1015.1 hPa SW 27.8 km/h 27.8 km/h 85% 0 mm
12:25 9.4 °C 7 °C 1015.5 hPa South 14.8 km/h 14.8 km/h 85% 0 mm
12:30 9.4 °C 7 °C 1015.5 hPa SSW 9.3 km/h 9.3 km/h 85% 0 mm
12:35 9.5 °C 7.1 °C 1015.1 hPa NW 16.7 km/h 16.7 km/h 85% 0 mm
12:40 9.6 °C 7 °C 1014.8 hPa SSW 5.6 km/h 5.6 km/h 84% 0 mm
12:45 9.6 °C 7.1 °C 1014.8 hPa SW 13 km/h 13 km/h 84% 0 mm
12:50 9.6 °C 7 °C 1014.8 hPa SW 25.9 km/h 25.9 km/h 84% 0 mm
12:55 9.6 °C 7.1 °C 1014.4 hPa WSW 18.5 km/h 18.5 km/h 84% 0 mm
13:00 9.7 °C 7.1 °C 1014.4 hPa SW 16.7 km/h 16.7 km/h 84% 0 mm
13:05 9.7 °C 6.9 °C 1014.1 hPa SW 16.7 km/h 16.7 km/h 83% 0 mm
13:11 9.7 °C 6.9 °C 1014.1 hPa SW 11.1 km/h 11.1 km/h 83% 0 mm
13:16 9.8 °C 7 °C 1014.1 hPa SSE 18.5 km/h 18.5 km/h 83% 0 mm
13:21 9.7 °C 7 °C 1014.1 hPa SW 16.7 km/h 16.7 km/h 83% 0 mm
13:26 9.7 °C 7 °C 1014.1 hPa SW 16.7 km/h 16.7 km/h 83% 0 mm
13:31 9.8 °C 7 °C 1014.1 hPa West 11.1 km/h 11.1 km/h 83% 0 mm
13:36 9.8 °C 7.1 °C 1013.4 hPa SW 14.8 km/h 14.8 km/h 83% 0 mm
13:41 9.8 °C 7.1 °C 1013.4 hPa South 18.5 km/h 18.5 km/h 83% 0 mm
13:46 9.8 °C 7.1 °C 1013.4 hPa West 14.8 km/h 14.8 km/h 83% 0 mm
13:52 9.8 °C 7.1 °C 1013.4 hPa WSW 13 km/h 13 km/h 83% 0 mm
13:57 9.8 °C 7.1 °C 1013.4 hPa South 18.5 km/h 18.5 km/h 83% 0 mm
14:02 9.8 °C 7.1 °C 1013.4 hPa SSE 14.8 km/h 14.8 km/h 83% 0 mm
14:07 9.8 °C 7.1 °C 1013.4 hPa SW 9.3 km/h 9.3 km/h 83% 0 mm
14:12 9.9 °C 7.1 °C 1013.1 hPa South 9.3 km/h 9.3 km/h 83% 0 mm
14:18 10 °C 7.2 °C 1013.1 hPa WSW 5.6 km/h 5.6 km/h 83% 0 mm
14:23 10.2 °C 7.3 °C 1013.1 hPa SW 9.3 km/h 9.3 km/h 82% 0 mm
14:28 10.4 °C 7.3 °C 1012.8 hPa SSW 9.3 km/h 9.3 km/h 81% 0 mm
14:33 10.6 °C 7.3 °C 1012.8 hPa West 13 km/h 13 km/h 80% 0 mm
14:38 10.8 °C 7.3 °C 1012.8 hPa WSW 14.8 km/h 14.8 km/h 79% 0 mm
14:43 10.9 °C 7.4 °C 1012.8 hPa SSW 16.7 km/h 16.7 km/h 79% 0 mm
14:48 11.3 °C 7.6 °C 1012.8 hPa SSW 5.6 km/h 5.6 km/h 78% 0 mm
14:53 11.5 °C 7.6 °C 1012.8 hPa WSW 11.1 km/h 11.1 km/h 77% 0 mm
14:58 11.5 °C 7.6 °C 1012.8 hPa SSW 18.5 km/h 18.5 km/h 77% 0 mm
15:04 11.8 °C 7.7 °C 1012.8 hPa SSW 16.7 km/h 16.7 km/h 76% 0 mm
15:09 11.9 °C 7.8 °C 1012.4 hPa SSW 14.8 km/h 14.8 km/h 76% 0 mm
15:14 12 °C 7.9 °C 1012.4 hPa SW 5.6 km/h 5.6 km/h 76% 0 mm
15:19 12.3 °C 8 °C 1012.4 hPa SSW 16.7 km/h 16.7 km/h 75% 0 mm
15:24 12.5 °C 8 °C 1012.1 hPa WSW 14.8 km/h 14.8 km/h 74% 0 mm
15:29 12.8 °C 8.1 °C 1012.1 hPa SW 18.5 km/h 18.5 km/h 73% 0 mm
15:35 12.8 °C 7.9 °C 1012.1 hPa SW 13 km/h 13 km/h 72% 0 mm
15:40 13 °C 8.1 °C 1012.1 hPa SSW 16.7 km/h 16.7 km/h 72% 0 mm
15:45 13.1 °C 7.9 °C 1012.1 hPa SSE 13 km/h 13 km/h 71% 0 mm
15:50 13.2 °C 8.1 °C 1012.1 hPa SW 3.7 km/h 3.7 km/h 71% 0 mm
15:55 13.6 °C 8 °C 1012.1 hPa SW 11.3 km/h 11.3 km/h 69% 0 mm
16:00 13.6 °C 8 °C 1012.1 hPa SW 5.6 km/h 9.5 km/h 69% 0 mm
16:05 13.8 °C 8.2 °C 1011.7 hPa South 14.8 km/h 14.8 km/h 69% 0 mm
16:10 13.8 °C 7.9 °C 1011.7 hPa SSW 18.5 km/h 18.5 km/h 68% 0 mm
16:15 13.8 °C 7.9 °C 1011.7 hPa SSW 13 km/h 13 km/h 68% 0 mm
16:20 13.8 °C 8 °C 1011.7 hPa SSW 11.1 km/h 11.1 km/h 68% 0 mm
16:25 14 °C 8.2 °C 1011.4 hPa South 7.4 km/h 7.4 km/h 68% 0 mm
16:30 14.1 °C 8 °C 1011.4 hPa SSW 11.1 km/h 11.1 km/h 67% 0 mm
16:35 14.1 °C 8 °C 1011.4 hPa SW 9.3 km/h 9.3 km/h 67% 0 mm
16:40 14.1 °C 8.1 °C 1011.1 hPa SW 5.6 km/h 5.6 km/h 67% 0 mm
16:46 14.1 °C 7.8 °C 1011.1 hPa South 13 km/h 13 km/h 66% 0 mm
16:51 14.1 °C 7.8 °C 1011.1 hPa South 9.7 km/h 9.7 km/h 66% 0 mm
16:56 14.1 °C 7.8 °C 1011.1 hPa South 13 km/h 13 km/h 66% 0 mm
17:01 14.1 °C 7.8 °C 1010.7 hPa SSE 9.3 km/h 9.3 km/h 66% 0 mm
17:07 14 °C 7.9 °C 1010.7 hPa SSW 9.7 km/h 9.7 km/h 67% 0 mm
17:12 13.9 °C 7.8 °C 1010.7 hPa South 13 km/h 13 km/h 67% 0 mm
17:17 13.8 °C 7.8 °C 1010.7 hPa South 7.4 km/h 7.4 km/h 67% 0 mm
17:23 13.7 °C 7.7 °C 1010.7 hPa South 7.4 km/h 7.4 km/h 67% 0 mm
17:28 13.6 °C 7.8 °C 1010.7 hPa SSE 5.6 km/h 5.6 km/h 68% 0 mm
17:33 13.5 °C 7.7 °C 1010.7 hPa SSE 9.3 km/h 9.3 km/h 68% 0 mm
17:38 13.4 °C 7.7 °C 1010.7 hPa South 5.6 km/h 5.6 km/h 68% 0 mm
17:43 13.3 °C 7.6 °C 1010.7 hPa South 7.4 km/h 7.4 km/h 68% 0 mm
17:48 13.2 °C 7.7 °C 1010.7 hPa South 5.6 km/h 5.6 km/h 69% 0 mm
17:53 13.2 °C 7.6 °C 1011.1 hPa South 5.6 km/h 5.6 km/h 69% 0 mm
17:58 13.1 °C 7.5 °C 1011.1 hPa South 7.4 km/h 7.4 km/h 69% 0 mm
18:04 12.9 °C 7.6 °C 1010.7 hPa South 8 km/h 8 km/h 70% 0 mm
18:09 12.8 °C 7.4 °C 1010.7 hPa SSE 5.6 km/h 5.6 km/h 70% 0 mm
18:10 12.8 °C 7.4 °C 1010.7 hPa SSE 5.6 km/h 5.6 km/h 70% 0 mm
18:15 12.6 °C 7.3 °C 1010.7 hPa SSE 6.4 km/h 6.4 km/h 70% 0 mm
18:20 12.5 °C 7.4 °C 1011.1 hPa South 5.6 km/h 5.6 km/h 71% 0 mm
18:26 12.4 °C 7.3 °C 1011.1 hPa South 3.7 km/h 3.7 km/h 71% 0 mm
18:31 12.2 °C 7.3 °C 1011.1 hPa South 5.6 km/h 5.6 km/h 72% 0 mm
18:36 12.2 °C 7.3 °C 1011.1 hPa SE 11.1 km/h 11.1 km/h 72% 0 mm
18:41 12.2 °C 7.3 °C 1011.1 hPa South 8 km/h 8 km/h 72% 0 mm
18:46 12.1 °C 7.2 °C 1011.1 hPa South 11.3 km/h 11.3 km/h 72% 0 mm
18:52 12.1 °C 7.2 °C 1011.1 hPa South 9.3 km/h 9.3 km/h 72% 0 mm
18:57 12 °C 7.1 °C 1010.7 hPa South 9.3 km/h 9.3 km/h 72% 0 mm
19:02 11.8 °C 7.2 °C 1010.4 hPa South 5.6 km/h 5.6 km/h 73% 0 mm
19:07 11.7 °C 7 °C 1010.4 hPa South 7.4 km/h 7.4 km/h 73% 0 mm
19:12 11.5 °C 7 °C 1010.4 hPa South 6.4 km/h 6.4 km/h 74% 0 mm
19:18 11.4 °C 6.9 °C 1010.4 hPa SSE 9.3 km/h 9.3 km/h 74% 0 mm
19:23 11.2 °C 6.9 °C 1010.4 hPa SSE 5.6 km/h 5.6 km/h 75% 0 mm
19:28 11.1 °C 6.8 °C 1010.4 hPa SSE 6.4 km/h 6.4 km/h 75% 0 mm
19:33 11 °C 6.9 °C 1010.4 hPa SE 7.4 km/h 7.4 km/h 76% 0 mm
19:39 10.9 °C 6.9 °C 1010.4 hPa South 9.3 km/h 9.3 km/h 76% 0 mm
19:44 10.9 °C 6.8 °C 1010.4 hPa South 5.6 km/h 5.6 km/h 76% 0 mm
19:50 10.8 °C 6.9 °C 1010 hPa SSW 7.4 km/h 7.4 km/h 77% 0 mm
19:55 10.7 °C 6.8 °C 1010 hPa South 9.3 km/h 9.3 km/h 77% 0 mm
20:00 10.7 °C 6.8 °C 1010 hPa South 9.3 km/h 9.3 km/h 77% 0 mm
20:05 10.6 °C 6.9 °C 1010 hPa South 5.6 km/h 6.6 km/h 78% 0 mm
20:10 10.6 °C 6.9 °C 1010 hPa South 9.3 km/h 9.8 km/h 78% 0 mm
20:16 10.6 °C 6.9 °C 1010 hPa SSE 11.1 km/h 11.1 km/h 78% 0 mm
20:21 10.6 °C 6.9 °C 1010 hPa SSW 11.3 km/h 11.3 km/h 78% 0 mm
20:26 10.6 °C 6.9 °C 1010 hPa South 12.9 km/h 12.9 km/h 78% 0 mm
20:32 10.6 °C 6.9 °C 1010 hPa SSE 11.1 km/h 11.1 km/h 78% 0 mm
20:37 10.6 °C 7.1 °C 1009.7 hPa South 9.3 km/h 9.3 km/h 79% 0 mm
20:42 10.6 °C 7.1 °C 1009.7 hPa South 5.6 km/h 7.9 km/h 79% 0 mm
20:47 10.7 °C 7 °C 1009.7 hPa SSE 16.7 km/h 16.7 km/h 78% 0 mm
20:52 10.7 °C 7.2 °C 1009.7 hPa SSW 14.8 km/h 14.8 km/h 79% 0 mm
20:57 10.7 °C 7.2 °C 1009.7 hPa SE 14.8 km/h 14.8 km/h 79% 0 mm
21:03 10.8 °C 7.3 °C 1009.7 hPa South 11.1 km/h 11.1 km/h 79% 0 mm
21:08 10.7 °C 7.2 °C 1009.7 hPa South 14.8 km/h 14.8 km/h 79% 0 mm
21:13 10.7 °C 7.2 °C 1009.7 hPa SSE 11.1 km/h 11.1 km/h 79% 0 mm
21:18 10.7 °C 7.2 °C 1009.7 hPa South 13 km/h 13 km/h 79% 0 mm
21:23 10.8 °C 7.3 °C 1009.4 hPa South 11.3 km/h 11.3 km/h 79% 0 mm
21:28 10.8 °C 7.4 °C 1009.4 hPa SSE 11.1 km/h 11.1 km/h 80% 0 mm
21:34 10.8 °C 7.5 °C 1009.4 hPa South 14.8 km/h 14.8 km/h 80% 0 mm
21:39 10.9 °C 7.6 °C 1009.4 hPa SE 14.8 km/h 14.8 km/h 80% 0 mm
21:44 11 °C 7.9 °C 1009.4 hPa South 14.8 km/h 14.8 km/h 81% 0 mm
21:49 11.2 °C 8.1 °C 1009.4 hPa South 18.5 km/h 18.5 km/h 81% 0 mm
21:54 11.4 °C 8.1 °C 1009.4 hPa SSE 11.1 km/h 11.1 km/h 80% 0 mm
21:59 11.6 °C 8.4 °C 1009.4 hPa South 18.5 km/h 18.5 km/h 81% 0 mm
22:04 11.9 °C 8.6 °C 1009.4 hPa SSW 16.7 km/h 16.7 km/h 80% 0 mm
22:10 12.2 °C 8.7 °C 1009.7 hPa SW 14.8 km/h 14.8 km/h 79% 0 mm
22:15 12.4 °C 8.7 °C 1009.4 hPa South 13 km/h 13 km/h 78% 0 mm
22:20 12.4 °C 8.7 °C 1009.4 hPa SSW 8 km/h 8 km/h 78% 0 mm
22:25 12.6 °C 8.8 °C 1009.4 hPa SSW 7.4 km/h 7.4 km/h 78% 0 mm
22:30 12.7 °C 8.9 °C 1009 hPa SSW 14.8 km/h 14.8 km/h 78% 0 mm
22:35 12.8 °C 8.9 °C 1009.4 hPa SSE 14.8 km/h 14.8 km/h 77% 0 mm
22:41 12.9 °C 8.9 °C 1009 hPa South 25.7 km/h 25.7 km/h 77% 0 mm
22:46 13.1 °C 9 °C 1009 hPa SSW 14.8 km/h 14.8 km/h 76% 0 mm
22:51 13.2 °C 9 °C 1009 hPa SSE 14.8 km/h 14.8 km/h 76% 0 mm
22:56 13.2 °C 9.2 °C 1008.7 hPa South 18.5 km/h 18.5 km/h 77% 0 mm
23:01 13.2 °C 9.3 °C 1008.4 hPa South 16.7 km/h 16.7 km/h 77% 0 mm
23:06 13.3 °C 9.3 °C 1008.4 hPa SSE 18.5 km/h 18.5 km/h 77% 0 mm
23:11 13.4 °C 9.4 °C 1008.4 hPa SSW 24.1 km/h 24.1 km/h 77% 0 mm
23:16 13.4 °C 9.3 °C 1008.4 hPa SSW 11.1 km/h 11.1 km/h 76% 0 mm
23:21 13.8 °C 9.6 °C 1008 hPa SSE 20.4 km/h 20.4 km/h 76% 0 mm
23:27 13.9 °C 9.6 °C 1008 hPa South 17.7 km/h 17.7 km/h 75% 0 mm
23:32 14 °C 9.6 °C 1008 hPa SSE 13 km/h 13 km/h 75% 0 mm
23:37 14.1 °C 9.7 °C 1007.7 hPa SW 14.8 km/h 14.8 km/h 75% 0 mm
23:42 14.3 °C 9.7 °C 1007.7 hPa South 22.2 km/h 22.2 km/h 74% 0 mm
23:47 14.2 °C 9.8 °C 1007.7 hPa SW 11.1 km/h 11.1 km/h 75% 0 mm
23:52 14.1 °C 9.7 °C 1007.7 hPa South 9.3 km/h 9.3 km/h 75% 0 mm
23:58 14 °C 9.6 °C 1008 hPa SSW 8 km/h 8 km/h 75% 0 mm
Live Lenexa Weather
Compliments of Weather Underground - 1.75 mb